• Join FlightAware (Why Join?)
  • Login
  • US Flag 
11:00PM EST


 

Airport Tracker/Info


-or-


 

Live Flight TrackerFlight Track Log ✈ UCA4774 ✈ 09-Apr-2014 ✈ KCLE - KFNT

Flight Track Log - Related Links

Times and Time Zones

All times are in EDT time to prevent confusion due to time zone crossing. See the UCA4774 flight status page for this flight to view local times or setup timezone preferences in your user account.

Time Position Orientation Groundspeed Altitude Reporting Facility
EDT Latitude Longitude Course Direction KTS MPH feet Rate Location/Type
08:33AM 41.7067 -82.2056 319° Northwest  Level Estimated
08:34AM 41.7490 -82.2560 318° Northwest  Level Estimated
08:35AM 41.7914 -82.3065 318° Northwest  Level Estimated
08:36AM 41.8337 -82.3570 318° Northwest  Level Estimated
08:37AM 41.8760 -82.4076 318° Northwest  Level Estimated
08:38AM 41.9183 -82.4582 318° Northwest  Level Estimated
08:39AM 41.9606 -82.5090 318° Northwest  Level Estimated
08:40AM 42.0028 -82.5598 318° Northwest  Level Estimated
08:41AM 42.0450 -82.6106 318° Northwest  Level Estimated
08:42AM 42.0872 -82.6616 318° Northwest  Level Estimated
08:43AM 42.1294 -82.7126 318° Northwest  Level Estimated
08:44AM 42.1716 -82.7636 318° Northwest  Level Estimated
08:45AM 42.2137 -82.8148 318° Northwest  Level Estimated
08:46AM 42.2558 -82.8660 318° Northwest  Level Estimated
08:47AM 42.2979 -82.9172 318° Northwest  Level Estimated
08:48AM 42.3399 -82.9686 318° Northwest  Level Estimated
08:49AM 42.3820 -83.0200 318° Northwest  Level Estimated
08:50AM 42.4240 -83.0715 318° Northwest  Level Estimated
08:51AM 42.4660 -83.1230 318° Northwest  Level Estimated
08:52AM 42.5080 -83.1746 318° Northwest  Level Estimated
08:53AM 42.5499 -83.2263 318° Northwest  Level Estimated
08:54AM 42.5918 -83.2781 318° Northwest  Level Estimated
08:55AM 42.6337 -83.3299 318° Northwest  Level Estimated
08:56AM 42.6756 -83.3818 318° Northwest  Level Estimated
08:57AM 42.7174 -83.4337 318° Northwest  Level Estimated
08:58AM 42.7593 -83.4858 318° Northwest  Level Estimated
08:59AM 42.8011 -83.5379 318° Northwest  Level Estimated
09:00AM 42.8429 -83.5901 318° Northwest  Level Estimated
09:01AM 42.8846 -83.6423 317° Northwest  Level Estimated
09:02AM 42.9264 -83.6946 317° Northwest  Level Estimated
09:03AM 42.9654 -83.7437 317° Northwest  Level Estimated
09:04AM 42.9654 -83.7437 North  Level Estimated
09:05AM 42.9654 -83.7437 North  Level Estimated
09:06AM 42.9654 -83.7437 North  Level Estimated
09:07AM 42.9654 -83.7437 North  Level Estimated
09:08AM 42.9654 -83.7437 North  Level Estimated
09:09AM 42.9654 -83.7437 North  Level Estimated
09:10AM 42.9654 -83.7437 North  Level Estimated
09:11AM 42.9654 -83.7437 North  Level Estimated
09:12AM 42.9654 -83.7437 North  Level Estimated
09:13AM 42.9654 -83.7437 North  Level Estimated
09:14AM 42.9654 -83.7437 North  Level Estimated
09:15AM 42.9654 -83.7437 North  Level Estimated
09:16AM 42.9654 -83.7437 North  Level Estimated
09:17AM 42.9654 -83.7437 North  Level Estimated
09:18AM 42.9654 -83.7437 North  Level Estimated
09:19AM 42.9654 -83.7437 North  Level Estimated